Terminal Aerodrome Forecast
Issued by NWS Charleston, WV

Current Version | Previous Version | Graphics & Text | Print | Product List | Glossary On
Versions: 1 2 3 4 5 6 7 8 9 10 11 12 13 14 15 16 17 18 19 20 21 22
000
FTUS41 KRLX 291739
TAFPKB
TAF
KPKB 291739Z 2918/3018 20007KT 5SM -RA BR SCT030 BKN050 OVC070
     FM291930 21006KT 3SM SHRA BR VCTS OVC035CB
     FM292100 21004KT P6SM BKN040
     FM300900 22004KT P6SM BKN015
     FM301700 23006KT P6SM VCTS BKN035CB=

USA.gov is the U.S. government's official web portal to all federal, state and local government web resources and services.